Time;durP1;ratioP1;P1;durP2;ratioP2;P2;SDS_P1;SDS_P2;PMS_P1;PMS_P2;Temp;Humidity;BMP_temperature;BMP_pressure;BME280_temperature;BME280_humidity;BME280_pressure;Samples;Min_cycle;Max_cycle;Signal;HPM_P1;HPM_P2
2022/06/07 00:01:20;;;;;;;14.48;8.15;;;12.70;99.90;;;;;;5005121;28;20049;-94
2022/06/07 00:03:46;;;;;;;14.07;8.45;;;12.50;99.90;;;;;;5000201;28;20060;-88
2022/06/07 00:06:22;;;;;;;18.95;7.93;;;12.70;99.90;;;;;;4984715;28;20053;-88
2022/06/07 00:08:48;;;;;;;14.90;7.55;;;12.90;99.90;;;;;;5016125;28;20615;-88
2022/06/07 00:11:14;;;;;;;16.05;8.18;;;12.40;99.90;;;;;;5012070;28;20053;-90
2022/06/07 00:13:40;;;;;;;12.05;8.00;;;13.60;99.90;;;;;;4983805;28;20669;-91
2022/06/07 00:16:14;;;;;;;13.20;7.45;;;12.00;99.90;;;;;;4999816;28;20056;-88
2022/06/07 00:18:40;;;;;;;15.73;7.82;;;13.80;99.90;;;;;;5000127;28;20417;-90
2022/06/07 00:21:06;;;;;;;14.82;8.27;;;13.10;99.90;;;;;;4999846;28;20450;-89
2022/06/07 00:23:34;;;;;;;13.77;8.13;;;12.70;99.90;;;;;;4984155;28;20077;-93
2022/06/07 00:26:01;;;;;;;13.55;8.05;;;12.50;99.90;;;;;;5000015;28;20059;-88
2022/06/07 00:28:30;;;;;;;10.68;7.60;;;11.90;99.90;;;;;;5001941;28;20441;-87
2022/06/07 00:30:57;;;;;;;11.60;7.90;;;12.00;99.90;;;;;;4975405;28;20132;-87
2022/06/07 00:33:44;;;;;;;10.75;8.00;;;14.10;99.90;;;;;;5002577;28;20140;-90
2022/06/07 00:36:18;;;;;;;12.63;7.97;;;11.80;99.90;;;;;;4999687;28;20045;-89
2022/06/07 00:38:47;;;;;;;9.82;7.47;;;12.40;99.90;;;;;;5000150;28;20045;-87
2022/06/07 00:41:32;;;;;;;13.63;8.73;;;12.20;99.90;;;;;;4983004;28;20049;-91
2022/06/07 00:44:25;;;;;;;11.50;9.07;;;13.80;99.90;;;;;;4983009;28;20084;-90
2022/06/07 00:47:08;;;;;;;13.27;8.40;;;12.40;99.90;;;;;;4999711;28;20042;-89
2022/06/07 00:49:49;;;;;;;17.73;8.82;;;12.40;99.90;;;;;;5000177;28;20049;-90
2022/06/07 00:52:16;;;;;;;15.35;10.05;;;13.70;99.90;;;;;;5000405;28;20072;-90
2022/06/07 00:54:45;;;;;;;14.85;9.35;;;12.10;99.90;;;;;;5001883;28;20045;-89
2022/06/07 00:57:20;;;;;;;11.63;8.20;;;12.10;99.90;;;;;;5002596;28;20107;-89
2022/06/07 00:59:46;;;;;;;12.57;8.18;;;13.70;99.90;;;;;;5002419;28;20046;-89
2022/06/07 01:02:20;;;;;;;11.85;8.27;;;12.20;99.90;;;;;;4987119;28;20119;-88
2022/06/07 01:04:51;;;;;;;14.05;9.32;;;14.10;99.90;;;;;;5003201;28;20045;-91
2022/06/07 01:13:00;;;;;;;16.67;9.18;;;12.00;99.90;;;;;;5035362;28;20057;-90
2022/06/07 01:15:38;;;;;;;14.75;8.35;;;12.30;99.90;;;;;;5019387;28;20056;-88
2022/06/07 01:18:07;;;;;;;13.85;8.88;;;13.20;99.90;;;;;;5019509;28;20123;-90
2022/06/07 01:20:33;;;;;;;16.40;9.07;;;13.70;99.90;;;;;;5004924;28;20073;-91
2022/06/07 01:23:02;;;;;;;12.25;9.00;;;14.00;99.90;;;;;;4990404;28;20091;-89
2022/06/07 01:25:33;;;;;;;13.68;7.88;;;13.40;99.90;;;;;;5023279;28;20041;-88
2022/06/07 01:27:59;;;;;;;12.45;8.50;;;13.60;99.90;;;;;;5024336;28;20048;-88
2022/06/07 01:30:27;;;;;;;11.05;8.27;;;12.60;99.90;;;;;;5005840;28;20041;-89
2022/06/07 01:32:56;;;;;;;15.88;8.82;;;13.80;99.90;;;;;;4990466;28;20045;-91
2022/06/07 01:41:54;;;;;;;14.10;8.57;;;12.30;99.90;;;;;;5034433;28;20405;-92
2022/06/07 01:44:44;;;;;;;14.60;8.40;;;12.50;99.90;;;;;;5004742;28;20555;-90
2022/06/07 01:50:19;;;;;;;12.57;8.50;;;12.90;99.90;;;;;;5034961;28;20469;-88
2022/06/07 01:52:52;;;;;;;13.73;8.35;;;13.20;99.90;;;;;;5019055;28;20053;-90
2022/06/07 01:55:23;;;;;;;12.13;8.18;;;13.60;99.90;;;;;;5021805;28;20135;-89
2022/06/07 01:57:52;;;;;;;15.13;8.57;;;13.60;99.90;;;;;;5022650;28;20439;-88
2022/06/07 02:01:02;;;;;;;13.10;8.35;;;12.30;99.90;;;;;;4977868;28;20042;-90
2022/06/07 02:03:47;;;;;;;;;;;;;;;;;;;;;
2022/06/07 02:06:28;;;;;;;13.50;7.90;;;13.80;99.90;;;;;;5033715;28;20061;-88
2022/06/07 02:08:58;;;;;;;10.88;8.27;;;13.90;99.90;;;;;;5001140;28;20041;-91
2022/06/07 02:11:47;;;;;;;14.77;8.48;;;12.60;99.90;;;;;;5015689;28;20501;-88
2022/06/07 02:14:27;;;;;;;11.45;8.60;;;12.90;99.90;;;;;;5002949;28;20052;-89
2022/06/07 02:16:56;;;;;;;15.45;9.25;;;13.70;99.90;;;;;;5002642;28;20069;-89
2022/06/07 02:19:28;;;;;;;12.40;8.55;;;12.60;99.90;;;;;;5001951;28;20060;-89
2022/06/07 02:21:54;;;;;;;15.10;9.80;;;12.80;99.90;;;;;;5002212;28;20057;-89
2022/06/07 02:24:22;;;;;;;13.23;9.10;;;12.90;99.90;;;;;;5002703;28;20060;-88
2022/06/07 02:27:27;;;;;;;12.52;8.52;;;13.70;99.90;;;;;;4986565;28;20049;-88
2022/06/07 02:29:54;;;;;;;12.43;8.50;;;13.50;99.90;;;;;;5000290;28;20046;-88
2022/06/07 02:32:41;;;;;;;15.07;8.77;;;13.00;99.90;;;;;;5002161;28;20124;-90
2022/06/07 02:35:07;;;;;;;9.90;7.80;;;12.50;99.90;;;;;;5002188;28;20393;-90
2022/06/07 02:37:38;;;;;;;11.73;8.35;;;12.40;99.90;;;;;;5002355;28;20490;-91
2022/06/07 02:40:11;;;;;;;14.63;8.68;;;13.60;99.90;;;;;;5002101;28;20048;-91
2022/06/07 02:42:39;;;;;;;13.82;8.60;;;12.40;99.90;;;;;;4985921;28;20064;-90
2022/06/07 02:45:06;;;;;;;15.65;9.10;;;13.40;99.90;;;;;;5002126;28;20159;-90
2022/06/07 02:47:43;;;;;;;12.90;8.55;;;13.30;99.90;;;;;;5009767;28;20056;-88
2022/06/07 02:50:15;;;;;;;10.60;8.45;;;12.10;99.90;;;;;;5004936;28;20081;-89
2022/06/07 02:52:44;;;;;;;14.07;8.43;;;13.60;99.90;;;;;;4985849;28;20053;-88
2022/06/07 02:55:29;;;;;;;13.17;8.80;;;12.40;99.90;;;;;;4988043;28;20059;-88
2022/06/07 02:57:55;;;;;;;13.88;9.07;;;13.60;99.90;;;;;;4985741;28;20100;-90
2022/06/07 03:04:16;;;;;;;12.45;8.82;;;12.90;99.90;;;;;;4964956;28;20185;-90
2022/06/07 03:06:48;;;;;;;11.10;8.20;;;12.90;99.90;;;;;;5001289;28;20824;-88
2022/06/07 03:09:30;;;;;;;13.85;9.15;;;12.90;99.90;;;;;;5002167;28;20104;-90
2022/06/07 03:11:59;;;;;;;12.57;8.73;;;12.50;99.90;;;;;;4996274;28;20064;-90
2022/06/07 03:14:43;;;;;;;10.70;7.63;;;13.10;99.90;;;;;;5020810;28;20045;-91
2022/06/07 03:17:24;;;;;;;14.90;9.25;;;13.50;99.90;;;;;;5021550;28;20041;-90
2022/06/07 03:20:22;;;;;;;12.52;9.00;;;12.90;99.90;;;;;;5021286;28;20045;-90
2022/06/07 03:30:15;;;;;;;12.02;8.32;;;12.50;99.90;;;;;;4978995;28;20103;-90
2022/06/07 03:36:30;;;;;;;12.68;8.40;;;13.30;99.90;;;;;;4958005;28;20113;-91
2022/06/07 03:39:43;;;;;;;14.27;9.20;;;12.70;99.90;;;;;;4942020;28;20443;-90
2022/06/07 03:42:34;;;;;;;;;;;;;;;;;;;;;
2022/06/07 03:48:41;;;;;;;14.95;8.93;;;13.40;99.90;;;;;;4914463;29;20048;-89
2022/06/07 03:51:31;;;;;;;12.73;9.27;;;13.20;99.90;;;;;;4948740;28;20089;-89
2022/06/07 03:54:04;;;;;;;13.90;9.25;;;12.50;99.90;;;;;;4957655;28;20093;-89
2022/06/07 03:56:38;;;;;;;15.63;9.48;;;12.40;99.90;;;;;;4957095;28;20065;-91
2022/06/07 03:59:18;;;;;;;16.38;10.20;;;13.30;99.90;;;;;;4990885;28;20041;-92
2022/06/07 04:01:59;;;;;;;14.95;9.38;;;12.60;99.90;;;;;;5019097;28;20045;-90
2022/06/07 04:05:03;;;;;;;12.75;9.63;;;13.40;99.90;;;;;;5019440;28;20041;-90
2022/06/07 04:11:21;;;;;;;15.48;10.55;;;12.70;99.90;;;;;;5036696;28;20045;-89
2022/06/07 04:13:51;;;;;;;16.73;10.93;;;13.40;99.90;;;;;;4993236;28;20493;-89
2022/06/07 04:16:36;;;;;;;17.88;10.82;;;11.80;99.90;;;;;;5019527;28;20204;-88
2022/06/07 04:19:08;;;;;;;13.32;10.52;;;12.50;99.90;;;;;;5032574;28;20443;-88
2022/06/07 04:21:56;;;;;;;18.17;11.55;;;13.10;99.90;;;;;;5002494;28;20140;-90
2022/06/07 04:24:38;;;;;;;19.00;10.35;;;12.60;99.90;;;;;;5019281;28;20057;-89
2022/06/07 04:27:06;;;;;;;14.43;10.18;;;12.40;99.90;;;;;;5019384;28;20045;-88
2022/06/07 04:29:32;;;;;;;14.07;8.90;;;13.30;99.90;;;;;;5021009;28;20055;-89
2022/06/07 04:32:05;;;;;;;13.35;8.95;;;13.20;99.90;;;;;;5025630;28;20500;-89
2022/06/07 04:34:45;;;;;;;11.75;7.55;;;12.40;99.90;;;;;;5008286;28;20041;-91
2022/06/07 04:37:44;;;;;;;10.43;6.68;;;12.60;99.90;;;;;;5025232;28;20105;-88
2022/06/07 04:40:19;;;;;;;8.77;6.85;;;12.10;99.90;;;;;;5013102;28;20945;-92
2022/06/07 04:43:15;;;;;;;8.90;6.45;;;12.20;99.90;;;;;;5031216;28;20053;-90
2022/06/07 04:45:44;;;;;;;11.50;5.85;;;12.70;99.90;;;;;;5025035;28;20051;-90
2022/06/07 04:51:34;;;;;;;9.43;6.20;;;12.60;99.90;;;;;;5064874;28;20052;-89
2022/06/07 04:57:06;;;;;;;6.88;5.60;;;11.90;99.90;;;;;;5049098;28;20117;-90
2022/06/07 04:59:35;;;;;;;12.02;5.75;;;12.20;99.90;;;;;;5006910;28;20107;-91
2022/06/07 05:02:04;;;;;;;10.38;5.20;;;12.00;99.90;;;;;;5020885;28;20053;-88
2022/06/07 05:04:45;;;;;;;9.48;5.25;;;12.20;99.90;;;;;;5012316;28;20069;-88
2022/06/07 05:07:15;;;;;;;10.30;5.80;;;12.30;99.90;;;;;;5005419;28;20048;-89
2022/06/07 05:10:00;;;;;;;8.23;5.18;;;12.60;99.90;;;;;;5019432;28;20132;-89
2022/06/07 05:15:35;;;;;;;9.25;5.80;;;12.40;99.90;;;;;;5008643;28;20053;-90
2022/06/07 05:18:01;;;;;;;9.95;5.90;;;12.50;99.90;;;;;;5007875;28;20093;-88
2022/06/07 05:20:47;;;;;;;12.57;6.22;;;12.20;99.90;;;;;;5009816;28;20042;-89
2022/06/07 05:23:34;;;;;;;10.02;6.07;;;12.20;99.90;;;;;;4984345;28;20041;-90
2022/06/07 05:26:26;;;;;;;7.40;6.25;;;13.00;99.90;;;;;;4985837;28;20046;-90
2022/06/07 05:29:18;;;;;;;12.80;6.78;;;13.60;99.90;;;;;;5005083;28;20099;-90
2022/06/07 05:31:44;;;;;;;9.73;7.25;;;12.90;99.90;;;;;;5003127;28;20056;-89
2022/06/07 05:34:45;;;;;;;7.97;6.60;;;12.50;99.90;;;;;;5003051;28;20132;-92
2022/06/07 05:40:49;;;;;;;8.95;6.35;;;13.00;99.90;;;;;;5019220;28;20041;-91
2022/06/07 05:43:37;;;;;;;10.15;7.03;;;13.10;99.90;;;;;;4992011;28;20111;-91
2022/06/07 05:46:23;;;;;;;10.63;7.80;;;12.40;99.90;;;;;;5004795;28;20108;-92
2022/06/07 05:48:52;;;;;;;9.75;7.03;;;12.80;99.90;;;;;;4987249;28;20057;-91
2022/06/07 05:51:47;;;;;;;15.80;6.88;;;13.10;99.90;;;;;;5003324;28;20041;-90
2022/06/07 05:54:26;;;;;;;11.18;7.60;;;12.90;99.90;;;;;;5003303;28;20092;-90
2022/06/07 05:57:00;;;;;;;10.38;7.03;;;12.90;99.90;;;;;;5019544;28;20056;-93
2022/06/07 05:59:29;;;;;;;10.07;6.95;;;13.10;99.90;;;;;;4986853;28;20050;-90
2022/06/07 06:02:18;;;;;;;11.43;6.60;;;13.10;99.90;;;;;;5001645;28;20045;-89
2022/06/07 06:05:04;;;;;;;10.98;6.53;;;12.70;99.90;;;;;;4999127;28;20431;-91
2022/06/07 06:14:40;;;;;;;8.02;4.82;;;13.00;99.90;;;;;;5032335;28;20076;-91
2022/06/07 06:17:16;;;;;;;5.70;4.40;;;12.80;99.90;;;;;;5000965;28;20060;-89
2022/06/07 06:20:00;;;;;;;6.22;3.88;;;12.40;99.90;;;;;;4984179;28;20041;-91
2022/06/07 06:22:29;;;;;;;7.68;4.30;;;13.00;99.90;;;;;;5017497;28;20041;-90
2022/06/07 06:25:28;;;;;;;6.28;4.00;;;12.20;99.90;;;;;;5017176;28;20064;-90
2022/06/07 06:28:14;;;;;;;8.38;4.43;;;12.80;99.90;;;;;;5017570;28;20053;-90
2022/06/07 06:30:48;;;;;;;6.80;3.83;;;11.80;99.90;;;;;;5017043;28;20140;-89
2022/06/07 06:33:20;;;;;;;7.32;4.28;;;12.20;99.90;;;;;;5017039;28;20041;-87
2022/06/07 06:35:56;;;;;;;7.35;3.83;;;12.20;99.90;;;;;;4995777;28;20172;-88
2022/06/07 06:38:50;;;;;;;9.77;4.13;;;12.80;99.90;;;;;;5021178;28;20413;-90
2022/06/07 06:41:51;;;;;;;;;;;;;;;;;;;;;
2022/06/07 06:44:35;;;;;;;7.05;4.07;;;12.60;99.90;;;;;;5053108;28;20134;-90
2022/06/07 06:48:00;;;;;;;8.70;4.45;;;12.10;99.90;;;;;;5022413;28;20346;-90
2022/06/07 06:59:15;;;;;;;;;;;;;;;;;;;;;
2022/06/07 07:02:07;;;;;;;;;;;;;;;;;;;;;
2022/06/07 07:09:01;;;;;;;7.95;3.78;;;12.30;99.90;;;;;;4944190;29;20065;-89
2022/06/07 07:25:10;;;;;;;4.57;1.70;;;12.70;99.90;;;;;;4993895;28;20081;-90
2022/06/07 07:27:39;;;;;;;4.72;2.20;;;13.00;99.90;;;;;;4954227;28;20085;-89
2022/06/07 07:30:56;;;;;;;5.13;2.28;;;13.50;99.90;;;;;;4976231;28;20525;-91
2022/06/07 07:33:43;;;;;;;6.70;1.83;;;12.80;99.90;;;;;;4996476;28;20053;-88
2022/06/07 07:36:15;;;;;;;4.00;1.50;;;13.30;99.90;;;;;;5021623;28;20049;-91
2022/06/07 07:39:05;;;;;;;7.28;2.35;;;13.50;99.90;;;;;;5004146;28;20392;-88
2022/06/07 07:42:01;;;;;;;8.93;2.22;;;13.40;99.90;;;;;;5020659;28;20268;-90
2022/06/07 07:44:55;;;;;;;7.80;2.00;;;13.20;99.90;;;;;;5020074;28;20049;-87
2022/06/07 07:48:26;;;;;;;5.70;1.85;;;14.40;99.90;;;;;;5019875;28;20391;-89
2022/06/07 07:50:51;;;;;;;5.85;1.80;;;13.70;99.90;;;;;;5034692;28;20519;-89
2022/06/07 07:54:01;;;;;;;5.30;1.67;;;14.10;99.90;;;;;;5020098;28;20123;-91
2022/06/07 07:56:33;;;;;;;6.03;2.17;;;13.50;99.90;;;;;;5020104;28;20508;-91
2022/06/07 07:59:19;;;;;;;5.75;1.67;;;13.80;99.90;;;;;;5019867;28;20048;-91
2022/06/07 08:01:51;;;;;;;6.40;1.80;;;13.50;99.90;;;;;;5017952;28;20047;-90
2022/06/07 08:04:26;;;;;;;4.78;1.70;;;14.60;99.90;;;;;;5019798;28;20045;-88
2022/06/07 08:06:55;;;;;;;6.88;2.25;;;14.00;99.90;;;;;;5004436;28;20049;-91
2022/06/07 08:09:45;;;;;;;7.10;1.60;;;13.90;99.90;;;;;;5003783;28;20041;-91
2022/06/07 08:12:58;;;;;;;8.77;2.65;;;13.80;99.90;;;;;;5021393;28;20116;-88
2022/06/07 08:15:26;;;;;;;9.43;2.10;;;12.90;99.90;;;;;;5057946;28;20403;-91
2022/06/07 08:18:14;;;;;;;7.00;2.20;;;13.20;99.90;;;;;;5007849;28;20079;-90
2022/06/07 08:21:13;;;;;;;;;;;;;;;;;;;;;
2022/06/07 08:23:50;;;;;;;8.48;1.77;;;13.60;99.90;;;;;;5034222;28;20053;-88
2022/06/07 08:26:33;;;;;;;9.05;1.90;;;13.90;99.90;;;;;;5019438;28;20405;-89
2022/06/07 08:29:03;;;;;;;6.43;2.33;;;13.30;99.90;;;;;;5003036;28;20045;-88
2022/06/07 08:31:39;;;;;;;6.20;1.60;;;14.00;99.90;;;;;;5020099;28;20064;-88
2022/06/07 08:38:00;;;;;;;;;;;;;;;;;;;;;
2022/06/07 08:40:45;;;;;;;8.48;1.80;;;13.50;99.90;;;;;;5033626;28;20060;-88
2022/06/07 08:43:20;;;;;;;5.18;1.90;;;13.70;99.90;;;;;;5019571;28;20140;-89
2022/06/07 08:45:52;;;;;;;4.03;1.63;;;13.50;99.90;;;;;;5019470;28;20049;-92
2022/06/07 08:48:33;;;;;;;6.85;1.63;;;14.40;99.90;;;;;;5019534;28;20060;-90
2022/06/07 08:51:19;;;;;;;5.43;1.70;;;14.20;99.90;;;;;;5019212;28;20139;-92
2022/06/07 08:54:11;;;;;;;5.53;1.75;;;13.80;99.90;;;;;;5020445;28;20052;-91
2022/06/07 08:56:58;;;;;;;4.25;1.80;;;14.50;99.90;;;;;;5019651;28;20388;-92
2022/06/07 08:59:24;;;;;;;4.00;1.60;;;14.40;99.90;;;;;;5015150;28;20094;-90
2022/06/07 09:02:32;;;;;;;3.95;1.70;;;14.60;99.90;;;;;;5002250;28;20045;-91
2022/06/07 09:04:58;;;;;;;5.35;1.77;;;14.90;99.90;;;;;;5019580;28;20041;-91
2022/06/07 09:14:59;;;;;;;7.85;2.17;;;14.40;99.90;;;;;;4975494;28;20140;-89
2022/06/07 09:18:10;;;;;;;7.10;2.28;;;15.20;99.90;;;;;;4923670;29;20134;-89
2022/06/07 09:20:55;;;;;;;7.07;2.08;;;15.20;99.90;;;;;;4903153;29;20066;-90
2022/06/07 09:23:27;;;;;;;5.78;1.65;;;15.60;99.90;;;;;;4901289;29;20078;-88
2022/06/07 09:30:10;;;;;;;4.78;1.58;;;15.00;99.90;;;;;;4930958;29;20541;-90
2022/06/07 09:32:36;;;;;;;5.60;2.08;;;15.60;99.90;;;;;;4947358;28;20086;-88
2022/06/07 09:35:37;;;;;;;7.88;1.63;;;15.50;99.90;;;;;;4979532;28;20045;-89
2022/06/07 09:39:13;;;;;;;4.57;1.50;;;14.60;99.90;;;;;;5008033;28;20050;-86
2022/06/07 09:46:08;;;;;;;7.63;2.28;;;14.60;99.90;;;;;;4915792;29;20051;-89
2022/06/07 09:52:40;;;;;;;6.05;1.42;;;14.30;99.90;;;;;;4921294;29;20059;-90
2022/06/07 09:55:38;;;;;;;7.70;2.08;;;14.50;99.90;;;;;;4954125;28;20485;-90
2022/06/07 09:58:55;;;;;;;8.15;1.52;;;13.80;99.90;;;;;;4949101;29;20070;-89
2022/06/07 10:01:56;;;;;;;6.00;1.55;;;13.30;99.90;;;;;;4968701;28;20074;-89
2022/06/07 10:04:53;;;;;;;;;;;;;;;;;;;;;
2022/06/07 10:11:10;;;;;;;6.53;1.52;;;13.30;99.90;;;;;;5048011;28;20231;-87
2022/06/07 10:13:56;;;;;;;3.95;1.23;;;13.80;99.90;;;;;;5013159;28;20061;-87
2022/06/07 10:20:51;;;;;;;7.10;1.35;;;13.90;99.90;;;;;;5013751;28;20040;-88
2022/06/07 10:23:59;;;;;;;6.03;1.67;;;14.10;99.90;;;;;;5003369;28;20100;-91
2022/06/07 10:26:57;;;;;;;2.78;1.40;;;14.20;99.90;;;;;;5002790;28;20089;-89
2022/06/07 10:29:41;;;;;;;5.28;1.60;;;14.30;99.90;;;;;;5002527;28;20428;-88
2022/06/07 10:32:40;;;;;;;7.32;1.50;;;14.30;99.90;;;;;;5002168;28;20053;-90
2022/06/07 10:35:15;;;;;;;4.40;1.52;;;13.90;99.90;;;;;;5002367;28;20560;-90
2022/06/07 10:38:21;;;;;;;4.88;1.75;;;15.10;99.90;;;;;;5002011;28;20056;-88
2022/06/07 10:41:10;;;;;;;;;;;14.90;99.90;;;;;;5002336;28;20068;-90
2022/06/07 10:43:42;;;;;;;5.82;1.48;;;14.40;99.90;;;;;;4939821;29;19922;-90
2022/06/07 10:46:26;;;;;;;7.25;1.38;;;15.00;99.90;;;;;;5029532;28;20123;-88
2022/06/07 10:49:33;;;;;;;4.15;1.38;;;15.10;99.90;;;;;;5017024;28;20050;-91
2022/06/07 10:52:45;;;;;;;4.85;1.40;;;15.20;99.90;;;;;;4990504;28;20552;-90
2022/06/07 10:55:35;;;;;;;3.47;1.42;;;14.80;99.90;;;;;;4942364;28;20540;-92
2022/06/07 10:58:32;;;;;;;3.55;1.27;;;15.00;99.90;;;;;;5016406;28;20081;-90
2022/06/07 11:01:41;;;;;;;4.63;1.15;;;15.30;99.90;;;;;;5018179;28;20049;-91
2022/06/07 11:09:19;;;;;;;3.72;1.10;;;14.80;99.90;;;;;;5016217;28;20049;-92
2022/06/07 11:10:23;;;;;;;3.45;1.80;;;14.70;99.90;;;;;;5015732;28;20053;-90
2022/06/07 11:13:16;;;;;;;3.83;1.20;;;14.30;99.90;;;;;;5000339;28;20097;-89
2022/06/07 11:16:08;;;;;;;5.03;1.33;;;14.40;99.90;;;;;;4993365;28;20049;-89
2022/06/07 11:18:40;;;;;;;4.72;1.33;;;14.50;99.90;;;;;;5016270;28;20099;-89
2022/06/07 11:21:06;;;;;;;4.55;1.35;;;14.50;99.90;;;;;;5020427;28;20080;-89
2022/06/07 11:23:42;;;;;;;6.40;1.95;;;14.50;99.90;;;;;;5020888;28;20052;-89
2022/06/07 11:26:24;;;;;;;12.60;2.25;;;14.70;99.90;;;;;;5001611;28;20080;-91
2022/06/07 11:29:09;;;;;;;6.72;1.60;;;14.80;99.90;;;;;;4977270;28;20478;-91
2022/06/07 11:34:39;;;;;;;5.95;1.50;;;15.10;99.90;;;;;;4976964;28;20050;-90
2022/06/07 11:37:17;;;;;;;5.55;1.40;;;15.20;99.90;;;;;;4945107;28;20516;-88
2022/06/07 11:43:03;;;;;;;6.90;1.60;;;15.50;99.90;;;;;;4974271;28;20521;-88
2022/06/07 11:49:29;;;;;;;5.93;1.50;;;15.80;99.90;;;;;;4946184;28;20054;-90
2022/06/07 11:53:05;;;;;;;5.47;1.65;;;16.10;99.90;;;;;;4934905;29;20047;-88
2022/06/07 11:56:02;;;;;;;2.22;1.40;;;15.60;99.90;;;;;;4900610;29;20111;-87
2022/06/07 12:02:17;;;;;;;7.88;1.65;;;16.70;99.90;;;;;;4957055;29;20103;-90
2022/06/07 12:04:47;;;;;;;2.97;1.33;;;16.70;99.90;;;;;;5000083;28;20091;-89
2022/06/07 12:07:54;;;;;;;3.95;1.38;;;17.30;99.90;;;;;;5000039;28;20556;-89
2022/06/07 12:11:04;;;;;;;4.88;1.85;;;17.70;99.90;;;;;;4969334;28;20061;-89
2022/06/07 12:17:57;;;;;;;5.55;1.08;;;17.80;99.90;;;;;;4953884;28;20041;-90
2022/06/07 12:20:50;;;;;;;3.33;1.40;;;17.20;99.90;;;;;;4985573;28;20076;-90
2022/06/07 12:23:31;;;;;;;5.25;1.40;;;17.40;99.90;;;;;;5000056;28;20064;-88
2022/06/07 12:26:47;;;;;;;3.22;1.23;;;17.70;99.90;;;;;;5000573;28;20053;-90
2022/06/07 12:29:47;;;;;;;7.15;1.63;;;17.50;99.90;;;;;;4989618;28;20053;-88
2022/06/07 12:32:28;;;;;;;3.92;1.40;;;17.70;99.90;;;;;;4999299;28;20481;-90
2022/06/07 12:35:16;;;;;;;4.65;1.50;;;17.30;99.90;;;;;;5016450;28;20041;-89
2022/06/07 12:38:00;;;;;;;6.53;1.70;;;17.60;99.90;;;;;;4999322;28;20073;-90
2022/06/07 12:40:52;;;;;;;5.15;1.55;;;17.20;99.90;;;;;;5000151;28;20053;-91
2022/06/07 12:43:28;;;;;;;12.52;2.63;;;17.40;99.90;;;;;;5001253;28;20069;-90
2022/06/07 12:46:40;;;;;;;4.68;1.40;;;17.10;99.90;;;;;;5001065;28;20045;-90
2022/06/07 12:49:25;;;;;;;4.45;1.38;;;16.80;99.90;;;;;;4999801;28;20499;-89
2022/06/07 12:52:13;;;;;;;8.30;1.58;;;16.50;99.90;;;;;;5000474;28;20049;-90
2022/06/07 12:54:51;;;;;;;5.32;1.60;;;16.20;99.90;;;;;;4985869;28;20049;-88
2022/06/07 12:57:28;;;;;;;4.38;1.60;;;15.90;99.90;;;;;;5001208;28;20056;-87
2022/06/07 13:00:00;;;;;;;7.30;1.90;;;16.20;99.90;;;;;;5001005;28;20046;-88
2022/06/07 13:02:51;;;;;;;9.05;1.92;;;16.40;99.90;;;;;;5003269;28;20049;-88
2022/06/07 13:05:29;;;;;;;7.10;1.80;;;16.50;99.90;;;;;;5005128;28;20397;-88
2022/06/07 13:08:00;;;;;;;5.18;1.30;;;16.30;99.90;;;;;;5005200;28;20057;-88
2022/06/07 13:10:47;;;;;;;4.90;1.50;;;16.30;99.90;;;;;;5005299;28;20050;-90
2022/06/07 13:13:24;;;;;;;4.70;1.45;;;16.70;99.90;;;;;;5004267;28;20087;-89
2022/06/07 13:16:13;;;;;;;5.07;1.73;;;16.30;99.90;;;;;;5005189;28;20095;-90
2022/06/07 13:18:58;;;;;;;4.60;1.70;;;16.50;99.90;;;;;;5006349;28;20104;-89
2022/06/07 13:21:28;;;;;;;6.68;1.50;;;16.50;99.90;;;;;;4999395;28;20049;-90
2022/06/07 13:24:21;;;;;;;5.90;1.60;;;16.80;99.90;;;;;;5000295;28;20049;-89
2022/06/07 13:26:48;;;;;;;3.58;1.30;;;17.00;99.90;;;;;;5015593;28;20057;-88
2022/06/07 13:29:27;;;;;;;5.78;1.40;;;17.30;99.90;;;;;;5000451;28;20089;-89
2022/06/07 13:31:57;;;;;;;4.90;2.00;;;16.90;99.90;;;;;;5000218;28;20409;-90
2022/06/07 13:34:28;;;;;;;3.85;2.00;;;17.40;99.90;;;;;;5004028;28;20118;-88
2022/06/07 13:37:06;;;;;;;4.47;1.65;;;17.30;99.90;;;;;;5006009;28;20038;-88
2022/06/07 13:40:14;;;;;;;6.30;1.65;;;17.30;99.90;;;;;;5004654;28;20120;-89
2022/06/07 13:42:51;;;;;;;6.65;2.28;;;17.40;99.90;;;;;;5006531;28;20511;-89
2022/06/07 13:45:44;;;;;;;6.22;1.75;;;17.50;99.90;;;;;;5022005;28;20050;-89
2022/06/07 13:53:21;;;;;;;4.75;1.52;;;17.40;99.90;;;;;;5006519;28;20076;-90
2022/06/07 13:54:21;;;;;;;6.10;1.58;;;17.40;99.90;;;;;;5019521;28;20049;-90
2022/06/07 13:56:57;;;;;;;4.65;1.27;;;17.20;99.90;;;;;;5003297;28;20056;-90
2022/06/07 13:59:29;;;;;;;3.45;1.50;;;16.90;99.90;;;;;;5001411;28;20048;-90
2022/06/07 14:01:58;;;;;;;3.75;1.35;;;17.50;99.90;;;;;;5002955;28;20112;-91
2022/06/07 14:04:31;;;;;;;3.50;1.55;;;17.00;99.90;;;;;;4986447;28;20045;-89
2022/06/07 14:06:57;;;;;;;5.10;1.33;;;17.00;99.90;;;;;;5002880;28;20053;-92
2022/06/07 14:09:26;;;;;;;3.58;1.50;;;16.80;99.90;;;;;;5002938;28;20105;-89
2022/06/07 14:12:02;;;;;;;4.90;1.55;;;17.10;99.90;;;;;;5002712;28;20510;-88
2022/06/07 14:14:48;;;;;;;4.65;1.60;;;17.10;99.90;;;;;;5002723;28;20056;-89
2022/06/07 14:17:27;;;;;;;5.50;1.65;;;17.10;99.90;;;;;;5000231;28;20042;-86
2022/06/07 14:20:19;;;;;;;6.25;1.60;;;16.10;99.90;;;;;;4993928;28;20132;-88
2022/06/07 14:22:57;;;;;;;4.65;1.40;;;16.80;99.90;;;;;;5002856;28;20056;-88
2022/06/07 14:25:54;;;;;;;2.92;1.92;;;17.00;99.90;;;;;;5010020;28;20539;-88
2022/06/07 14:28:31;;;;;;;4.70;1.70;;;17.00;99.90;;;;;;4974510;28;20194;-91
2022/06/07 14:31:05;;;;;;;6.90;2.00;;;16.70;99.90;;;;;;4959826;28;20038;-89
2022/06/07 14:34:23;;;;;;;3.63;1.55;;;17.00;99.90;;;;;;5028492;28;20510;-89
2022/06/07 14:36:57;;;;;;;4.20;1.83;;;16.80;99.90;;;;;;5021453;28;20041;-89
2022/06/07 14:39:26;;;;;;;5.80;1.70;;;16.90;99.90;;;;;;5006079;28;20427;-91
2022/06/07 14:41:55;;;;;;;5.90;1.83;;;17.00;99.90;;;;;;5021838;28;20045;-89
2022/06/07 14:44:34;;;;;;;5.97;1.90;;;16.90;99.90;;;;;;5021599;28;20893;-91
2022/06/07 14:47:04;;;;;;;4.80;1.35;;;17.10;99.90;;;;;;5020630;28;20131;-88
2022/06/07 14:49:40;;;;;;;6.32;2.00;;;17.20;99.90;;;;;;5020355;28;20488;-88
2022/06/07 14:52:15;;;;;;;4.85;1.50;;;17.10;99.90;;;;;;5020680;28;20052;-92
2022/06/07 14:54:42;;;;;;;4.97;1.63;;;17.10;99.90;;;;;;5019820;28;20131;-91
2022/06/07 14:57:28;;;;;;;7.38;2.40;;;17.20;99.90;;;;;;5020255;28;20037;-88
2022/06/07 14:59:56;;;;;;;5.90;2.10;;;16.90;99.90;;;;;;5021446;28;20080;-89
2022/06/07 15:02:36;;;;;;;5.43;1.77;;;17.10;99.90;;;;;;5022007;28;20442;-89
2022/06/07 15:05:08;;;;;;;5.05;1.60;;;17.20;99.90;;;;;;5021446;28;20059;-89
2022/06/07 15:07:47;;;;;;;6.93;1.55;;;17.20;99.90;;;;;;5021719;28;20045;-90
2022/06/07 15:10:17;;;;;;;5.22;1.55;;;17.20;99.90;;;;;;5038627;28;20061;-90
2022/06/07 15:12:55;;;;;;;4.07;1.20;;;17.10;99.90;;;;;;5006507;28;20480;-90
2022/06/07 15:15:34;;;;;;;;;;;;;;;;;;;;;
2022/06/07 15:18:28;;;;;;;4.65;1.73;;;17.00;99.90;;;;;;5024145;28;20096;-90
2022/06/07 15:20:54;;;;;;;7.00;1.55;;;16.70;99.90;;;;;;5021041;28;20527;-91
2022/06/07 15:23:23;;;;;;;6.85;2.03;;;16.90;99.90;;;;;;5021543;28;20045;-90
2022/06/07 15:25:57;;;;;;;2.53;1.27;;;16.80;99.90;;;;;;5022242;28;20453;-89
2022/06/07 15:28:24;;;;;;;4.93;1.60;;;17.20;99.90;;;;;;5021009;28;20393;-91
2022/06/07 15:31:00;;;;;;;4.25;1.33;;;16.50;99.90;;;;;;5021926;28;20571;-90
2022/06/07 15:33:27;;;;;;;5.60;1.60;;;16.20;99.90;;;;;;5024007;28;20135;-89
2022/06/07 15:36:17;;;;;;;4.32;1.40;;;16.50;99.90;;;;;;5024826;28;20048;-89
2022/06/07 15:39:13;;;;;;;3.35;1.30;;;16.50;99.90;;;;;;5006134;28;20049;-90
2022/06/07 15:44:34;;;;;;;5.22;1.40;;;16.60;99.90;;;;;;5039471;28;20056;-90
2022/06/07 15:47:16;;;;;;;3.50;1.27;;;16.60;99.90;;;;;;5031725;28;20049;-89
2022/06/07 15:49:50;;;;;;;2.75;1.23;;;16.50;99.90;;;;;;5025495;28;20059;-89
2022/06/07 15:52:18;;;;;;;5.22;1.60;;;16.50;99.90;;;;;;5006433;28;20128;-89
2022/06/07 15:54:44;;;;;;;3.72;1.65;;;16.40;99.90;;;;;;5004184;28;20127;-89
2022/06/07 15:57:13;;;;;;;6.80;1.52;;;16.20;99.90;;;;;;5004621;28;20455;-90
2022/06/07 15:59:39;;;;;;;4.28;1.35;;;16.40;99.90;;;;;;5005108;28;20060;-90
2022/06/07 16:02:06;;;;;;;6.40;1.63;;;16.50;99.90;;;;;;5004117;28;20480;-90
2022/06/07 16:04:35;;;;;;;4.57;1.27;;;16.60;99.90;;;;;;5020726;28;20055;-90
2022/06/07 16:07:04;;;;;;;4.88;1.50;;;16.40;99.90;;;;;;5020215;28;20056;-90
2022/06/07 16:10:09;;;;;;;;;;;;;;;;;;;;;
2022/06/07 16:12:39;;;;;;;3.40;1.30;;;16.10;99.90;;;;;;5035936;28;20048;-89
2022/06/07 16:15:10;;;;;;;4.63;1.55;;;16.50;99.90;;;;;;5020214;28;20055;-90
2022/06/07 16:18:17;;;;;;;3.95;1.30;;;16.40;99.90;;;;;;5021321;28;20053;-91
2022/06/07 16:20:50;;;;;;;3.03;1.42;;;16.50;99.90;;;;;;5019953;28;20040;-89
2022/06/07 16:23:19;;;;;;;4.25;1.80;;;16.50;99.90;;;;;;5019438;28;20136;-89
2022/06/07 16:25:46;;;;;;;3.25;1.40;;;16.50;99.90;;;;;;5019820;28;20052;-89
2022/06/07 16:33:52;;;;;;;5.07;1.35;;;16.50;99.90;;;;;;5022462;28;20503;-89